createdAt,value
2022-11-18T00:01:00.049Z,24.3
2022-11-18T00:06:37.279Z,24.3
2022-11-18T00:11:59.395Z,24.3
2022-11-18T00:17:37.576Z,24.2
2022-11-18T00:23:19.556Z,24.1
2022-11-18T00:28:56.879Z,24.1
2022-11-18T00:34:33.478Z,24.1
2022-11-18T00:40:11.693Z,24.1
2022-11-18T00:45:33.438Z,24.1
2022-11-18T00:51:11.327Z,24
2022-11-18T00:56:33.993Z,23.9
2022-11-18T01:07:34.556Z,23.9
2022-11-18T01:12:57.570Z,23.9
2022-11-18T01:18:19.828Z,23.9
2022-11-18T01:23:41.659Z,23.9
2022-11-18T01:29:08.133Z,23.9
2022-11-18T01:35:17.922Z,23.8
2022-11-18T01:40:40.407Z,23.8
2022-11-18T01:46:02.721Z,23.8
2022-11-18T01:51:40.359Z,23.7
2022-11-18T01:56:52.168Z,23.7
2022-11-18T02:02:16.224Z,23.7
2022-11-18T02:07:54.075Z,23.7
2022-11-18T02:13:32.881Z,23.7
2022-11-18T02:19:10.823Z,23.6
2022-11-18T02:24:48.032Z,23.6
2022-11-18T02:30:09.865Z,23.6
2022-11-18T02:35:32.108Z,23.6
2022-11-18T02:40:53.737Z,23.6
2022-11-18T02:46:31.234Z,23.5
2022-11-18T02:52:09.390Z,23.6
2022-11-18T02:57:46.823Z,23.5
2022-11-18T03:03:24.650Z,23.5
2022-11-18T03:09:02.699Z,23.5
2022-11-18T03:14:09.261Z,23.5
2022-11-18T03:19:31.771Z,23.4
2022-11-18T03:24:38.159Z,23.4
2022-11-18T03:30:15.811Z,23.4
2022-11-18T03:35:23.066Z,23.4
2022-11-18T03:41:10.350Z,23.4
2022-11-18T03:46:53.445Z,23.4
2022-11-18T03:52:15.665Z,23.4
2022-11-18T03:57:59.196Z,23.4
2022-11-18T04:03:36.212Z,23.4
2022-11-18T04:09:13.982Z,23.3
2022-11-18T04:14:52.488Z,23.3
2022-11-18T04:20:30.302Z,23.3
2022-11-18T04:26:08.011Z,23.3
2022-11-18T04:31:30.323Z,23.3
2022-11-18T04:37:07.564Z,23.3
2022-11-18T04:42:36.962Z,23.3
2022-11-18T04:48:20.025Z,23.3
2022-11-18T04:53:57.737Z,23.3
2022-11-18T04:59:40.404Z,23.2
2022-11-18T05:05:18.615Z,23.2
2022-11-18T05:10:41.282Z,23.2
2022-11-18T05:16:05.035Z,23.2
2022-11-18T05:21:31.230Z,23.2
2022-11-18T05:26:53.172Z,23.1
2022-11-18T05:32:15.872Z,23.1
2022-11-18T05:37:56.474Z,23.1
2022-11-18T05:43:18.752Z,23.1
2022-11-18T05:48:58.592Z,23.1
2022-11-18T05:54:37.847Z,23.1
2022-11-18T06:00:15.744Z,23.1
2022-11-18T06:05:54.405Z,23
2022-11-18T06:11:33.443Z,23
2022-11-18T06:17:14.002Z,23
2022-11-18T06:22:52.179Z,22.9
2022-11-18T06:28:30.729Z,22.9
2022-11-18T06:34:14.184Z,22.9
2022-11-18T06:39:53.027Z,22.9
2022-11-18T06:45:38.129Z,22.9
2022-11-18T06:51:00.998Z,22.8
2022-11-18T06:56:29.003Z,22.9
2022-11-18T07:02:07.557Z,22.8
2022-11-18T07:07:44.279Z,22.8
2022-11-18T07:13:22.302Z,22.8
2022-11-18T07:19:04.650Z,22.8
2022-11-18T07:24:41.912Z,22.8
2022-11-18T07:30:20.528Z,22.8
2022-11-18T07:35:59.245Z,22.8
2022-11-18T07:41:40.837Z,22.7
2022-11-18T07:47:25.089Z,22.7
2022-11-18T07:53:05.437Z,22.7
2022-11-18T07:58:43.264Z,22.7
2022-11-18T08:04:22.252Z,22.7
2022-11-18T08:10:06.984Z,22.7
2022-11-18T08:15:48.108Z,22.6
2022-11-18T08:21:25.505Z,22.6
2022-11-18T08:27:08.341Z,22.6
2022-11-18T08:32:49.887Z,22.6
2022-11-18T08:38:33.061Z,22.6
2022-11-18T08:43:42.516Z,22.6
2022-11-18T08:49:20.422Z,22.6
2022-11-18T08:54:58.658Z,22.5
2022-11-18T09:00:36.355Z,22.5
2022-11-18T09:06:13.599Z,22.5
2022-11-18T09:11:57.772Z,22.5
2022-11-18T09:19:24.699Z,22.5
2022-11-18T09:25:10.560Z,22.5
2022-11-18T09:30:55.069Z,22.5
2022-11-18T09:36:33.317Z,22.5
2022-11-18T09:42:16.617Z,22.4
2022-11-18T09:47:59.953Z,22.5
2022-11-18T09:54:19.166Z,22.4
2022-11-18T09:59:58.146Z,22.4
2022-11-18T10:05:36.185Z,22.4
2022-11-18T10:11:14.298Z,22.4
2022-11-18T10:16:58.222Z,23.6
2022-11-18T10:23:08.705Z,52.5
2022-11-18T10:28:48.865Z,42.9
2022-11-18T10:34:11.027Z,39.4
2022-11-18T10:40:02.398Z,52.5
2022-11-18T10:45:41.177Z,50.4
2022-11-18T10:51:10.943Z,44.5
2022-11-18T10:56:52.238Z,43.8
2022-11-18T11:02:34.879Z,49.8
2022-11-18T11:08:38.001Z,44.4
2022-11-18T11:14:00.958Z,40.8
2022-11-18T11:19:40.607Z,37.9
2022-11-18T11:25:25.312Z,35.6
2022-11-18T11:32:49.183Z,33.3
2022-11-18T11:38:27.393Z,32.1
2022-11-18T11:44:09.922Z,30.8
2022-11-18T11:49:33.017Z,29.9
2022-11-18T11:55:19.019Z,29.1
2022-11-18T12:00:42.149Z,28.5
2022-11-18T12:06:26.480Z,27.9
2022-11-18T12:12:05.414Z,27.4
2022-11-18T12:17:48.245Z,26.9
2022-11-18T12:23:26.950Z,26.6
2022-11-18T12:29:05.741Z,26.3
2022-11-18T12:34:43.342Z,25.9
2022-11-18T12:40:21.060Z,25.6
2022-11-18T12:45:59.361Z,25.4
2022-11-18T12:51:37.921Z,25.2
2022-11-18T12:57:04.412Z,25
2022-11-18T13:02:27.533Z,24.8
2022-11-18T13:08:11.326Z,24.6
2022-11-18T13:13:50.660Z,24.5
2022-11-18T13:19:29.497Z,24.3
2022-11-18T13:24:35.970Z,24.2
2022-11-18T13:30:13.793Z,24.1
2022-11-18T13:35:51.487Z,24
2022-11-18T13:41:20.955Z,23.9
2022-11-18T13:47:03.059Z,23.8
2022-11-18T13:52:41.982Z,23.7
2022-11-18T13:57:49.206Z,23.6
2022-11-18T14:03:43.429Z,23.6
2022-11-18T14:09:06.696Z,23.5
2022-11-18T14:14:44.192Z,23.4
2022-11-18T14:20:24.407Z,23.4
2022-11-18T14:26:04.214Z,23.3
2022-11-18T14:31:26.383Z,23.3
2022-11-18T14:37:04.974Z,23.3
2022-11-18T14:43:30.885Z,23.2
2022-11-18T14:48:53.691Z,23.1
2022-11-18T14:54:40.380Z,23.1
2022-11-18T15:00:18.771Z,23.1
2022-11-18T15:05:32.830Z,23
2022-11-18T15:11:10.848Z,23
2022-11-18T15:16:18.643Z,22.9
2022-11-18T15:21:56.253Z,22.9
2022-11-18T15:27:34.350Z,22.9
2022-11-18T15:33:12.683Z,22.9
2022-11-18T15:38:55.490Z,22.9
2022-11-18T15:44:15.505Z,22.8
2022-11-18T15:49:53.974Z,22.8
2022-11-18T15:55:39.246Z,22.8
2022-11-18T16:01:06.442Z,22.8
2022-11-18T16:06:29.724Z,22.8
2022-11-18T16:11:54.514Z,22.8
2022-11-18T16:17:16.941Z,22.7
2022-11-18T16:22:56.720Z,22.7
2022-11-18T16:28:41.026Z,22.7
2022-11-18T16:34:20.661Z,22.6
2022-11-18T16:40:05.114Z,22.6
2022-11-18T16:45:49.654Z,22.6
2022-11-18T16:51:33.688Z,22.6
2022-11-18T16:57:03.408Z,22.6
2022-11-18T17:03:07.478Z,22.6
2022-11-18T17:08:46.340Z,22.6
2022-11-18T17:13:57.670Z,22.6
2022-11-18T17:19:40.772Z,22.6
2022-11-18T17:25:05.416Z,22.6
2022-11-18T17:30:29.043Z,22.5
2022-11-18T17:35:55.389Z,22.5
2022-11-18T17:41:23.187Z,22.5
2022-11-18T17:46:34.927Z,22.4
2022-11-18T17:52:15.273Z,22.4
2022-11-18T17:58:05.088Z,22.4
2022-11-18T18:03:45.369Z,22.4
2022-11-18T18:09:08.077Z,22.4
2022-11-18T18:14:42.191Z,22.4
2022-11-18T18:20:21.838Z,22.4
2022-11-18T18:26:02.279Z,22.4
2022-11-18T18:31:40.924Z,22.4
2022-11-18T18:37:25.228Z,22.4
2022-11-18T18:42:32.485Z,22.4
2022-11-18T18:47:44.576Z,22.4
2022-11-18T18:53:23.808Z,22.3
2022-11-18T18:58:53.564Z,22.4
2022-11-18T19:04:41.327Z,22.3
2022-11-18T19:11:32.625Z,22.3
2022-11-18T19:16:41.897Z,22.3
2022-11-18T19:22:06.301Z,22.3
2022-11-18T19:28:15.022Z,22.3
2022-11-18T19:33:43.413Z,22.3
2022-11-18T19:39:23.865Z,22.3
2022-11-18T19:45:04.330Z,22.3
2022-11-18T19:50:48.513Z,22.3
2022-11-18T19:56:35.160Z,22.3
2022-11-18T20:02:15.174Z,22.3
2022-11-18T20:07:55.255Z,22.3
2022-11-18T20:13:40.021Z,22.3
2022-11-18T20:19:34.368Z,22.3
2022-11-18T20:25:14.313Z,22.2
2022-11-18T20:30:43.531Z,22.2
2022-11-18T20:36:23.342Z,22.2
2022-11-18T20:41:47.539Z,22.2
2022-11-18T20:47:13.172Z,22.1
2022-11-18T20:52:37.843Z,22.2
2022-11-18T20:57:30.744Z,22.1
2022-11-18T21:02:54.012Z,22.1
2022-11-18T21:08:33.937Z,22.1
2022-11-18T21:14:13.685Z,22.1
2022-11-18T21:19:53.901Z,22.1
2022-11-18T21:25:32.863Z,22.1
2022-11-18T21:31:22.001Z,22.1
2022-11-18T21:37:05.650Z,22.1
2022-11-18T21:42:46.633Z,22.1
2022-11-18T21:48:58.704Z,22.1
2022-11-18T21:54:39.107Z,22.1
2022-11-18T22:00:06.563Z,22.2
2022-11-18T22:05:28.094Z,22.1
2022-11-18T22:11:06.434Z,22.2
2022-11-18T22:16:28.982Z,22.2
2022-11-18T22:22:12.899Z,22.1
2022-11-18T22:27:53.261Z,22.2
2022-11-18T22:33:31.701Z,22.1
2022-11-18T22:39:09.770Z,22.1
2022-11-18T22:44:53.465Z,22.1
2022-11-18T22:50:31.757Z,22.1
2022-11-18T22:58:20.142Z,22.1
2022-11-18T23:05:10.433Z,22.1
2022-11-18T23:11:03.817Z,22.1
2022-11-18T23:16:47.779Z,22.1
2022-11-18T23:22:13.488Z,22.1
2022-11-18T23:27:37.962Z,22
2022-11-18T23:33:17.978Z,22
2022-11-18T23:38:57.547Z,22
2022-11-18T23:44:05.947Z,22
2022-11-18T23:49:44.282Z,22
2022-11-18T23:55:28.232Z,21.9
